sensor_id;sensor_type;location;lat;lon;timestamp;P1;durP1;ratioP1;P2;durP2;ratioP2
3297;SDS011;1661;53.572;10.174;2023-03-01T00:01:39;22.30;;;11.85;;
3297;SDS011;1661;53.572;10.174;2023-03-01T00:04:06;15.40;;;12.80;;
3297;SDS011;1661;53.572;10.174;2023-03-01T00:06:33;18.23;;;11.43;;
3297;SDS011;1661;53.572;10.174;2023-03-01T00:09:00;17.80;;;12.73;;
3297;SDS011;1661;53.572;10.174;2023-03-01T00:11:30;13.65;;;12.15;;
3297;SDS011;1661;53.572;10.174;2023-03-01T00:13:59;13.48;;;11.90;;
3297;SDS011;1661;53.572;10.174;2023-03-01T00:16:27;15.30;;;11.02;;
3297;SDS011;1661;53.572;10.174;2023-03-01T00:18:57;11.75;;;10.55;;
3297;SDS011;1661;53.572;10.174;2023-03-01T00:21:24;14.82;;;11.93;;
3297;SDS011;1661;53.572;10.174;2023-03-01T00:23:55;18.13;;;12.05;;
3297;SDS011;1661;53.572;10.174;2023-03-01T00:26:23;14.52;;;11.57;;
3297;SDS011;1661;53.572;10.174;2023-03-01T00:28:51;11.23;;;10.10;;
3297;SDS011;1661;53.572;10.174;2023-03-01T00:31:20;17.33;;;10.65;;
3297;SDS011;1661;53.572;10.174;2023-03-01T00:33:51;14.80;;;10.20;;
3297;SDS011;1661;53.572;10.174;2023-03-01T00:36:23;14.77;;;11.40;;
3297;SDS011;1661;53.572;10.174;2023-03-01T00:38:51;12.50;;;10.40;;
3297;SDS011;1661;53.572;10.174;2023-03-01T00:41:21;16.08;;;11.52;;
3297;SDS011;1661;53.572;10.174;2023-03-01T00:43:49;14.60;;;11.02;;
3297;SDS011;1661;53.572;10.174;2023-03-01T00:46:17;13.88;;;11.13;;
3297;SDS011;1661;53.572;10.174;2023-03-01T00:48:45;14.77;;;10.75;;
3297;SDS011;1661;53.572;10.174;2023-03-01T00:51:13;17.50;;;12.82;;
3297;SDS011;1661;53.572;10.174;2023-03-01T00:53:49;20.35;;;11.95;;
3297;SDS011;1661;53.572;10.174;2023-03-01T00:56:20;12.80;;;11.27;;
3297;SDS011;1661;53.572;10.174;2023-03-01T00:58:47;13.13;;;10.70;;
3297;SDS011;1661;53.572;10.174;2023-03-01T01:01:14;20.20;;;13.35;;
3297;SDS011;1661;53.572;10.174;2023-03-01T01:03:47;12.85;;;11.65;;
3297;SDS011;1661;53.572;10.174;2023-03-01T01:06:15;13.88;;;11.45;;
3297;SDS011;1661;53.572;10.174;2023-03-01T01:08:44;10.73;;;9.55;;
3297;SDS011;1661;53.572;10.174;2023-03-01T01:11:17;15.13;;;11.82;;
3297;SDS011;1661;53.572;10.174;2023-03-01T01:13:45;14.73;;;12.18;;
3297;SDS011;1661;53.572;10.174;2023-03-01T01:16:13;13.57;;;10.82;;
3297;SDS011;1661;53.572;10.174;2023-03-01T01:18:41;15.95;;;12.40;;
3297;SDS011;1661;53.572;10.174;2023-03-01T01:21:09;19.15;;;14.65;;
3297;SDS011;1661;53.572;10.174;2023-03-01T01:23:38;23.70;;;13.43;;
3297;SDS011;1661;53.572;10.174;2023-03-01T01:26:08;13.55;;;10.13;;
3297;SDS011;1661;53.572;10.174;2023-03-01T01:28:39;13.50;;;10.65;;
3297;SDS011;1661;53.572;10.174;2023-03-01T01:31:06;13.88;;;10.32;;
3297;SDS011;1661;53.572;10.174;2023-03-01T01:33:33;13.68;;;10.23;;
3297;SDS011;1661;53.572;10.174;2023-03-01T01:36:00;11.80;;;10.43;;
3297;SDS011;1661;53.572;10.174;2023-03-01T01:38:27;10.35;;;9.35;;
3297;SDS011;1661;53.572;10.174;2023-03-01T01:40:54;13.93;;;10.73;;
3297;SDS011;1661;53.572;10.174;2023-03-01T01:43:26;19.48;;;13.98;;
3297;SDS011;1661;53.572;10.174;2023-03-01T01:45:55;15.63;;;13.30;;
3297;SDS011;1661;53.572;10.174;2023-03-01T01:48:23;15.95;;;13.10;;
3297;SDS011;1661;53.572;10.174;2023-03-01T01:51:06;18.92;;;13.85;;
3297;SDS011;1661;53.572;10.174;2023-03-01T01:53:38;19.58;;;13.50;;
3297;SDS011;1661;53.572;10.174;2023-03-01T01:56:07;23.80;;;14.48;;
3297;SDS011;1661;53.572;10.174;2023-03-01T01:58:38;19.92;;;11.63;;
3297;SDS011;1661;53.572;10.174;2023-03-01T02:01:08;16.67;;;11.80;;
3297;SDS011;1661;53.572;10.174;2023-03-01T02:03:37;15.65;;;11.02;;
3297;SDS011;1661;53.572;10.174;2023-03-01T02:06:12;13.77;;;10.95;;
3297;SDS011;1661;53.572;10.174;2023-03-01T02:08:43;16.75;;;11.15;;
3297;SDS011;1661;53.572;10.174;2023-03-01T02:11:11;18.10;;;13.90;;
3297;SDS011;1661;53.572;10.174;2023-03-01T02:13:41;10.65;;;9.55;;
3297;SDS011;1661;53.572;10.174;2023-03-01T02:16:09;12.68;;;9.90;;
3297;SDS011;1661;53.572;10.174;2023-03-01T02:18:42;12.55;;;11.30;;
3297;SDS011;1661;53.572;10.174;2023-03-01T02:24:04;20.35;;;12.80;;
3297;SDS011;1661;53.572;10.174;2023-03-01T02:26:42;16.77;;;11.48;;
3297;SDS011;1661;53.572;10.174;2023-03-01T02:29:19;13.23;;;10.98;;
3297;SDS011;1661;53.572;10.174;2023-03-01T02:31:49;12.43;;;10.20;;
3297;SDS011;1661;53.572;10.174;2023-03-01T02:34:19;17.25;;;13.93;;
3297;SDS011;1661;53.572;10.174;2023-03-01T02:36:51;16.15;;;12.60;;
3297;SDS011;1661;53.572;10.174;2023-03-01T02:39:22;13.30;;;10.18;;
3297;SDS011;1661;53.572;10.174;2023-03-01T02:41:53;13.18;;;9.73;;
3297;SDS011;1661;53.572;10.174;2023-03-01T02:44:28;13.75;;;10.32;;
3297;SDS011;1661;53.572;10.174;2023-03-01T02:47:02;18.52;;;11.80;;
3297;SDS011;1661;53.572;10.174;2023-03-01T02:49:31;16.20;;;10.60;;
3297;SDS011;1661;53.572;10.174;2023-03-01T02:52:14;10.50;;;9.48;;
3297;SDS011;1661;53.572;10.174;2023-03-01T02:54:50;11.30;;;9.25;;
3297;SDS011;1661;53.572;10.174;2023-03-01T02:57:23;12.93;;;11.18;;
3297;SDS011;1661;53.572;10.174;2023-03-01T02:59:54;18.33;;;10.32;;
3297;SDS011;1661;53.572;10.174;2023-03-01T03:02:24;13.73;;;10.43;;
3297;SDS011;1661;53.572;10.174;2023-03-01T03:05:03;12.00;;;9.63;;
3297;SDS011;1661;53.572;10.174;2023-03-01T03:07:33;17.27;;;12.02;;
3297;SDS011;1661;53.572;10.174;2023-03-01T03:10:01;14.90;;;10.93;;
3297;SDS011;1661;53.572;10.174;2023-03-01T03:12:28;14.20;;;12.65;;
3297;SDS011;1661;53.572;10.174;2023-03-01T03:15:01;15.52;;;11.93;;
3297;SDS011;1661;53.572;10.174;2023-03-01T03:17:33;18.13;;;13.98;;
3297;SDS011;1661;53.572;10.174;2023-03-01T03:20:00;16.10;;;13.10;;
3297;SDS011;1661;53.572;10.174;2023-03-01T03:22:28;20.08;;;14.48;;
3297;SDS011;1661;53.572;10.174;2023-03-01T03:24:55;18.00;;;12.57;;
3297;SDS011;1661;53.572;10.174;2023-03-01T03:27:21;13.63;;;9.90;;
3297;SDS011;1661;53.572;10.174;2023-03-01T03:29:48;11.77;;;10.40;;
3297;SDS011;1661;53.572;10.174;2023-03-01T03:32:16;13.70;;;11.10;;
3297;SDS011;1661;53.572;10.174;2023-03-01T03:34:43;17.70;;;11.65;;
3297;SDS011;1661;53.572;10.174;2023-03-01T03:37:10;15.77;;;11.80;;
3297;SDS011;1661;53.572;10.174;2023-03-01T03:39:57;17.23;;;10.75;;
3297;SDS011;1661;53.572;10.174;2023-03-01T03:42:24;17.05;;;10.68;;
3297;SDS011;1661;53.572;10.174;2023-03-01T03:44:51;18.05;;;11.80;;
3297;SDS011;1661;53.572;10.174;2023-03-01T03:47:19;19.67;;;12.75;;
3297;SDS011;1661;53.572;10.174;2023-03-01T03:49:46;18.08;;;13.05;;
3297;SDS011;1661;53.572;10.174;2023-03-01T03:52:13;19.73;;;11.65;;
3297;SDS011;1661;53.572;10.174;2023-03-01T03:54:39;18.60;;;12.50;;
3297;SDS011;1661;53.572;10.174;2023-03-01T03:57:06;20.33;;;13.80;;
3297;SDS011;1661;53.572;10.174;2023-03-01T03:59:33;14.48;;;10.35;;
3297;SDS011;1661;53.572;10.174;2023-03-01T04:02:00;15.02;;;10.90;;
3297;SDS011;1661;53.572;10.174;2023-03-01T04:04:28;14.23;;;10.60;;
3297;SDS011;1661;53.572;10.174;2023-03-01T04:06:58;15.52;;;10.73;;
3297;SDS011;1661;53.572;10.174;2023-03-01T04:09:25;13.82;;;10.95;;
3297;SDS011;1661;53.572;10.174;2023-03-01T04:11:55;14.98;;;12.02;;
3297;SDS011;1661;53.572;10.174;2023-03-01T04:14:21;14.40;;;10.57;;
3297;SDS011;1661;53.572;10.174;2023-03-01T04:16:48;12.60;;;10.45;;
3297;SDS011;1661;53.572;10.174;2023-03-01T04:19:15;16.00;;;12.00;;
3297;SDS011;1661;53.572;10.174;2023-03-01T04:21:43;15.45;;;10.63;;
3297;SDS011;1661;53.572;10.174;2023-03-01T04:24:10;10.75;;;9.63;;
3297;SDS011;1661;53.572;10.174;2023-03-01T04:26:37;14.32;;;10.27;;
3297;SDS011;1661;53.572;10.174;2023-03-01T04:31:44;16.58;;;10.45;;
3297;SDS011;1661;53.572;10.174;2023-03-01T04:34:11;18.42;;;10.40;;
3297;SDS011;1661;53.572;10.174;2023-03-01T04:36:39;15.43;;;11.90;;
3297;SDS011;1661;53.572;10.174;2023-03-01T04:39:07;12.13;;;10.63;;
3297;SDS011;1661;53.572;10.174;2023-03-01T04:41:37;11.23;;;10.05;;
3297;SDS011;1661;53.572;10.174;2023-03-01T04:44:08;12.07;;;8.43;;
3297;SDS011;1661;53.572;10.174;2023-03-01T04:46:35;19.85;;;10.90;;
3297;SDS011;1661;53.572;10.174;2023-03-01T04:49:02;13.00;;;8.73;;
3297;SDS011;1661;53.572;10.174;2023-03-01T04:51:30;20.77;;;13.82;;
3297;SDS011;1661;53.572;10.174;2023-03-01T04:53:58;17.63;;;11.85;;
3297;SDS011;1661;53.572;10.174;2023-03-01T04:56:26;21.35;;;11.90;;
3297;SDS011;1661;53.572;10.174;2023-03-01T04:58:53;13.13;;;10.25;;
3297;SDS011;1661;53.572;10.174;2023-03-01T05:01:20;14.65;;;12.07;;
3297;SDS011;1661;53.572;10.174;2023-03-01T05:03:48;18.08;;;13.05;;
3297;SDS011;1661;53.572;10.174;2023-03-01T05:06:17;22.40;;;13.30;;
3297;SDS011;1661;53.572;10.174;2023-03-01T05:08:44;15.00;;;12.45;;
3297;SDS011;1661;53.572;10.174;2023-03-01T05:11:11;16.58;;;11.27;;
3297;SDS011;1661;53.572;10.174;2023-03-01T05:13:39;16.65;;;13.63;;
3297;SDS011;1661;53.572;10.174;2023-03-01T05:16:07;28.15;;;14.60;;
3297;SDS011;1661;53.572;10.174;2023-03-01T05:18:36;14.93;;;12.75;;
3297;SDS011;1661;53.572;10.174;2023-03-01T05:21:04;12.48;;;9.90;;
3297;SDS011;1661;53.572;10.174;2023-03-01T05:23:33;16.65;;;11.98;;
3297;SDS011;1661;53.572;10.174;2023-03-01T05:26:01;19.17;;;12.50;;
3297;SDS011;1661;53.572;10.174;2023-03-01T05:28:29;17.70;;;13.05;;
3297;SDS011;1661;53.572;10.174;2023-03-01T05:30:57;13.07;;;9.90;;
3297;SDS011;1661;53.572;10.174;2023-03-01T05:33:27;18.77;;;13.90;;
3297;SDS011;1661;53.572;10.174;2023-03-01T05:35:54;15.02;;;11.00;;
3297;SDS011;1661;53.572;10.174;2023-03-01T05:38:25;11.13;;;9.55;;
3297;SDS011;1661;53.572;10.174;2023-03-01T05:40:52;13.20;;;8.98;;
3297;SDS011;1661;53.572;10.174;2023-03-01T05:43:19;12.32;;;9.98;;
3297;SDS011;1661;53.572;10.174;2023-03-01T05:45:46;11.18;;;9.90;;
3297;SDS011;1661;53.572;10.174;2023-03-01T05:48:14;14.80;;;10.32;;
3297;SDS011;1661;53.572;10.174;2023-03-01T05:50:44;18.58;;;13.30;;
3297;SDS011;1661;53.572;10.174;2023-03-01T05:53:15;17.58;;;12.75;;
3297;SDS011;1661;53.572;10.174;2023-03-01T05:55:43;18.17;;;13.10;;
3297;SDS011;1661;53.572;10.174;2023-03-01T05:58:13;17.35;;;11.70;;
3297;SDS011;1661;53.572;10.174;2023-03-01T06:00:42;12.65;;;9.75;;
3297;SDS011;1661;53.572;10.174;2023-03-01T06:03:11;10.98;;;9.88;;
3297;SDS011;1661;53.572;10.174;2023-03-01T06:05:41;23.25;;;13.30;;
3297;SDS011;1661;53.572;10.174;2023-03-01T06:08:08;13.10;;;11.25;;
3297;SDS011;1661;53.572;10.174;2023-03-01T06:10:36;14.48;;;11.57;;
3297;SDS011;1661;53.572;10.174;2023-03-01T06:13:03;14.48;;;12.20;;
3297;SDS011;1661;53.572;10.174;2023-03-01T06:15:30;11.40;;;9.02;;
3297;SDS011;1661;53.572;10.174;2023-03-01T06:17:57;15.18;;;12.13;;
3297;SDS011;1661;53.572;10.174;2023-03-01T06:20:26;18.50;;;13.55;;
3297;SDS011;1661;53.572;10.174;2023-03-01T06:22:54;16.88;;;12.60;;
3297;SDS011;1661;53.572;10.174;2023-03-01T06:25:22;18.13;;;10.15;;
3297;SDS011;1661;53.572;10.174;2023-03-01T06:27:51;17.60;;;11.50;;
3297;SDS011;1661;53.572;10.174;2023-03-01T06:30:19;14.95;;;9.88;;
3297;SDS011;1661;53.572;10.174;2023-03-01T06:32:47;14.18;;;11.80;;
3297;SDS011;1661;53.572;10.174;2023-03-01T06:35:14;20.13;;;13.73;;
3297;SDS011;1661;53.572;10.174;2023-03-01T06:37:47;19.45;;;13.45;;
3297;SDS011;1661;53.572;10.174;2023-03-01T06:40:14;20.90;;;14.93;;
3297;SDS011;1661;53.572;10.174;2023-03-01T06:42:42;16.35;;;14.60;;
3297;SDS011;1661;53.572;10.174;2023-03-01T06:45:13;23.70;;;12.82;;
3297;SDS011;1661;53.572;10.174;2023-03-01T06:47:40;21.35;;;13.55;;
3297;SDS011;1661;53.572;10.174;2023-03-01T06:50:07;18.23;;;13.88;;
3297;SDS011;1661;53.572;10.174;2023-03-01T06:52:34;17.98;;;13.45;;
3297;SDS011;1661;53.572;10.174;2023-03-01T06:55:03;10.88;;;9.65;;
3297;SDS011;1661;53.572;10.174;2023-03-01T06:57:31;23.27;;;15.60;;
3297;SDS011;1661;53.572;10.174;2023-03-01T07:00:04;23.85;;;15.98;;
3297;SDS011;1661;53.572;10.174;2023-03-01T07:02:34;14.77;;;12.07;;
3297;SDS011;1661;53.572;10.174;2023-03-01T07:05:00;16.90;;;12.02;;
3297;SDS011;1661;53.572;10.174;2023-03-01T07:07:27;17.45;;;12.45;;
3297;SDS011;1661;53.572;10.174;2023-03-01T07:09:54;16.10;;;13.10;;
3297;SDS011;1661;53.572;10.174;2023-03-01T07:12:22;20.27;;;13.18;;
3297;SDS011;1661;53.572;10.174;2023-03-01T07:14:49;24.77;;;12.40;;
3297;SDS011;1661;53.572;10.174;2023-03-01T07:17:19;24.75;;;14.35;;
3297;SDS011;1661;53.572;10.174;2023-03-01T07:19:45;19.52;;;11.80;;
3297;SDS011;1661;53.572;10.174;2023-03-01T07:22:12;23.90;;;13.27;;
3297;SDS011;1661;53.572;10.174;2023-03-01T07:24:40;22.40;;;14.13;;
3297;SDS011;1661;53.572;10.174;2023-03-01T07:27:07;16.67;;;11.30;;
3297;SDS011;1661;53.572;10.174;2023-03-01T07:29:35;16.45;;;12.27;;
3297;SDS011;1661;53.572;10.174;2023-03-01T07:32:06;18.27;;;12.40;;
3297;SDS011;1661;53.572;10.174;2023-03-01T07:34:33;22.73;;;14.60;;
3297;SDS011;1661;53.572;10.174;2023-03-01T07:37:03;19.15;;;14.45;;
3297;SDS011;1661;53.572;10.174;2023-03-01T07:39:29;19.83;;;14.30;;
3297;SDS011;1661;53.572;10.174;2023-03-01T07:41:56;15.45;;;12.10;;
3297;SDS011;1661;53.572;10.174;2023-03-01T07:44:23;18.97;;;15.67;;
3297;SDS011;1661;53.572;10.174;2023-03-01T07:46:51;17.53;;;12.33;;
3297;SDS011;1661;53.572;10.174;2023-03-01T07:49:21;28.83;;;15.00;;
3297;SDS011;1661;53.572;10.174;2023-03-01T07:51:48;24.40;;;16.20;;
3297;SDS011;1661;53.572;10.174;2023-03-01T07:54:15;31.75;;;19.17;;
3297;SDS011;1661;53.572;10.174;2023-03-01T07:56:43;22.40;;;15.13;;
3297;SDS011;1661;53.572;10.174;2023-03-01T07:59:13;30.65;;;15.73;;
3297;SDS011;1661;53.572;10.174;2023-03-01T08:01:41;17.20;;;11.50;;
3297;SDS011;1661;53.572;10.174;2023-03-01T08:04:12;20.95;;;14.77;;
3297;SDS011;1661;53.572;10.174;2023-03-01T08:06:44;23.15;;;12.45;;
3297;SDS011;1661;53.572;10.174;2023-03-01T08:09:11;24.65;;;15.05;;
3297;SDS011;1661;53.572;10.174;2023-03-01T08:11:38;17.45;;;12.98;;
3297;SDS011;1661;53.572;10.174;2023-03-01T08:14:05;17.00;;;14.87;;
3297;SDS011;1661;53.572;10.174;2023-03-01T08:16:32;17.80;;;14.25;;
3297;SDS011;1661;53.572;10.174;2023-03-01T08:19:03;22.63;;;16.70;;
3297;SDS011;1661;53.572;10.174;2023-03-01T08:21:31;16.98;;;12.60;;
3297;SDS011;1661;53.572;10.174;2023-03-01T08:24:02;24.30;;;15.10;;
3297;SDS011;1661;53.572;10.174;2023-03-01T08:26:30;21.93;;;16.03;;
3297;SDS011;1661;53.572;10.174;2023-03-01T08:29:00;26.77;;;16.20;;
3297;SDS011;1661;53.572;10.174;2023-03-01T08:31:29;26.70;;;14.30;;
3297;SDS011;1661;53.572;10.174;2023-03-01T08:33:59;25.87;;;15.70;;
3297;SDS011;1661;53.572;10.174;2023-03-01T08:36:27;19.33;;;14.33;;
3297;SDS011;1661;53.572;10.174;2023-03-01T08:38:57;21.23;;;13.90;;
3297;SDS011;1661;53.572;10.174;2023-03-01T08:41:24;19.33;;;13.80;;
3297;SDS011;1661;53.572;10.174;2023-03-01T08:43:54;25.40;;;14.53;;
3297;SDS011;1661;53.572;10.174;2023-03-01T08:46:23;24.93;;;15.57;;
3297;SDS011;1661;53.572;10.174;2023-03-01T08:48:51;21.60;;;14.07;;
3297;SDS011;1661;53.572;10.174;2023-03-01T08:51:18;32.17;;;16.97;;
3297;SDS011;1661;53.572;10.174;2023-03-01T08:53:49;20.37;;;13.83;;
3297;SDS011;1661;53.572;10.174;2023-03-01T08:56:17;22.53;;;16.37;;
3297;SDS011;1661;53.572;10.174;2023-03-01T08:58:45;22.13;;;16.60;;
3297;SDS011;1661;53.572;10.174;2023-03-01T09:01:14;21.47;;;14.70;;
3297;SDS011;1661;53.572;10.174;2023-03-01T09:03:42;20.87;;;14.20;;
3297;SDS011;1661;53.572;10.174;2023-03-01T09:06:09;19.43;;;14.50;;
3297;SDS011;1661;53.572;10.174;2023-03-01T09:08:37;21.23;;;16.07;;
3297;SDS011;1661;53.572;10.174;2023-03-01T09:11:05;25.50;;;17.93;;
3297;SDS011;1661;53.572;10.174;2023-03-01T09:13:35;25.30;;;18.00;;
3297;SDS011;1661;53.572;10.174;2023-03-01T09:16:02;22.00;;;14.00;;
3297;SDS011;1661;53.572;10.174;2023-03-01T09:18:32;30.80;;;17.50;;
3297;SDS011;1661;53.572;10.174;2023-03-01T09:21:01;24.50;;;17.23;;
3297;SDS011;1661;53.572;10.174;2023-03-01T09:23:32;21.47;;;14.53;;
3297;SDS011;1661;53.572;10.174;2023-03-01T09:26:05;17.70;;;14.57;;
3297;SDS011;1661;53.572;10.174;2023-03-01T09:28:35;20.53;;;15.67;;
3297;SDS011;1661;53.572;10.174;2023-03-01T09:31:03;30.50;;;16.90;;
3297;SDS011;1661;53.572;10.174;2023-03-01T09:33:31;20.83;;;14.90;;
3297;SDS011;1661;53.572;10.174;2023-03-01T09:35:58;17.30;;;12.50;;
3297;SDS011;1661;53.572;10.174;2023-03-01T09:38:26;22.17;;;15.37;;
3297;SDS011;1661;53.572;10.174;2023-03-01T09:40:53;24.97;;;18.10;;
3297;SDS011;1661;53.572;10.174;2023-03-01T09:43:21;24.47;;;15.67;;
3297;SDS011;1661;53.572;10.174;2023-03-01T09:45:58;26.73;;;17.50;;
3297;SDS011;1661;53.572;10.174;2023-03-01T09:48:27;25.77;;;15.93;;
3297;SDS011;1661;53.572;10.174;2023-03-01T09:51:01;22.47;;;14.30;;
3297;SDS011;1661;53.572;10.174;2023-03-01T09:53:34;18.97;;;14.00;;
3297;SDS011;1661;53.572;10.174;2023-03-01T09:56:02;23.30;;;15.67;;
3297;SDS011;1661;53.572;10.174;2023-03-01T09:58:34;24.13;;;15.70;;
3297;SDS011;1661;53.572;10.174;2023-03-01T10:01:13;21.23;;;14.50;;
3297;SDS011;1661;53.572;10.174;2023-03-01T10:03:57;19.10;;;15.20;;
3297;SDS011;1661;53.572;10.174;2023-03-01T10:06:36;25.00;;;15.87;;
3297;SDS011;1661;53.572;10.174;2023-03-01T10:09:04;17.20;;;14.03;;
3297;SDS011;1661;53.572;10.174;2023-03-01T10:11:36;20.40;;;16.13;;
3297;SDS011;1661;53.572;10.174;2023-03-01T10:14:12;24.20;;;16.27;;
3297;SDS011;1661;53.572;10.174;2023-03-01T10:16:46;21.93;;;16.67;;
3297;SDS011;1661;53.572;10.174;2023-03-01T10:19:20;23.90;;;13.37;;
3297;SDS011;1661;53.572;10.174;2023-03-01T10:21:51;18.93;;;13.90;;
3297;SDS011;1661;53.572;10.174;2023-03-01T10:24:19;24.03;;;13.97;;
3297;SDS011;1661;53.572;10.174;2023-03-01T10:26:52;20.57;;;13.43;;
3297;SDS011;1661;53.572;10.174;2023-03-01T10:29:23;20.50;;;13.30;;
3297;SDS011;1661;53.572;10.174;2023-03-01T10:31:54;21.60;;;13.57;;
3297;SDS011;1661;53.572;10.174;2023-03-01T10:34:27;17.47;;;13.10;;
3297;SDS011;1661;53.572;10.174;2023-03-01T10:36:55;22.23;;;14.73;;
3297;SDS011;1661;53.572;10.174;2023-03-01T10:39:25;20.97;;;14.17;;
3297;SDS011;1661;53.572;10.174;2023-03-01T10:41:57;14.90;;;11.60;;
3297;SDS011;1661;53.572;10.174;2023-03-01T10:44:42;16.10;;;12.70;;
3297;SDS011;1661;53.572;10.174;2023-03-01T10:47:14;14.70;;;10.50;;
3297;SDS011;1661;53.572;10.174;2023-03-01T10:49:52;21.27;;;13.00;;
3297;SDS011;1661;53.572;10.174;2023-03-01T10:52:23;15.50;;;11.07;;
3297;SDS011;1661;53.572;10.174;2023-03-01T10:54:52;14.93;;;11.10;;
3297;SDS011;1661;53.572;10.174;2023-03-01T10:57:30;15.43;;;11.70;;
3297;SDS011;1661;53.572;10.174;2023-03-01T11:03:11;12.83;;;10.33;;
3297;SDS011;1661;53.572;10.174;2023-03-01T11:05:54;15.33;;;11.33;;
3297;SDS011;1661;53.572;10.174;2023-03-01T11:08:32;12.40;;;9.97;;
3297;SDS011;1661;53.572;10.174;2023-03-01T11:11:04;14.20;;;11.30;;
3297;SDS011;1661;53.572;10.174;2023-03-01T11:13:36;19.93;;;11.30;;
3297;SDS011;1661;53.572;10.174;2023-03-01T11:16:05;14.50;;;10.63;;
3297;SDS011;1661;53.572;10.174;2023-03-01T11:18:37;19.70;;;11.80;;
3297;SDS011;1661;53.572;10.174;2023-03-01T11:21:04;13.80;;;9.57;;
3297;SDS011;1661;53.572;10.174;2023-03-01T11:23:33;14.23;;;10.37;;
3297;SDS011;1661;53.572;10.174;2023-03-01T11:26:07;12.70;;;11.33;;
3297;SDS011;1661;53.572;10.174;2023-03-01T11:28:36;15.63;;;12.37;;
3297;SDS011;1661;53.572;10.174;2023-03-01T11:31:06;12.10;;;9.77;;
3297;SDS011;1661;53.572;10.174;2023-03-01T11:33:39;14.40;;;10.87;;
3297;SDS011;1661;53.572;10.174;2023-03-01T11:36:15;19.43;;;11.40;;
3297;SDS011;1661;53.572;10.174;2023-03-01T11:38:45;13.07;;;10.30;;
3297;SDS011;1661;53.572;10.174;2023-03-01T11:41:14;18.83;;;11.90;;
3297;SDS011;1661;53.572;10.174;2023-03-01T11:43:45;16.87;;;10.17;;
3297;SDS011;1661;53.572;10.174;2023-03-01T11:52:24;12.80;;;10.67;;
3297;SDS011;1661;53.572;10.174;2023-03-01T11:55:11;16.63;;;11.30;;
3297;SDS011;1661;53.572;10.174;2023-03-01T12:01:00;14.43;;;10.90;;
3297;SDS011;1661;53.572;10.174;2023-03-01T12:03:38;12.57;;;9.63;;
3297;SDS011;1661;53.572;10.174;2023-03-01T12:06:28;13.60;;;10.43;;
3297;SDS011;1661;53.572;10.174;2023-03-01T12:09:16;11.57;;;10.03;;
3297;SDS011;1661;53.572;10.174;2023-03-01T12:12:04;16.80;;;10.30;;
3297;SDS011;1661;53.572;10.174;2023-03-01T12:14:59;12.80;;;10.50;;
3297;SDS011;1661;53.572;10.174;2023-03-01T12:20:58;14.70;;;10.63;;
3297;SDS011;1661;53.572;10.174;2023-03-01T12:23:45;19.60;;;12.13;;
3297;SDS011;1661;53.572;10.174;2023-03-01T12:26:25;15.60;;;10.90;;
3297;SDS011;1661;53.572;10.174;2023-03-01T12:28:59;11.37;;;9.43;;
3297;SDS011;1661;53.572;10.174;2023-03-01T12:31:43;17.53;;;11.73;;
3297;SDS011;1661;53.572;10.174;2023-03-01T12:37:25;12.40;;;10.57;;
3297;SDS011;1661;53.572;10.174;2023-03-01T12:40:03;17.20;;;11.57;;
3297;SDS011;1661;53.572;10.174;2023-03-01T12:42:46;15.07;;;11.17;;
3297;SDS011;1661;53.572;10.174;2023-03-01T12:45:32;16.20;;;10.70;;
3297;SDS011;1661;53.572;10.174;2023-03-01T12:48:13;8.57;;;7.67;;
3297;SDS011;1661;53.572;10.174;2023-03-01T12:50:57;7.60;;;6.73;;
3297;SDS011;1661;53.572;10.174;2023-03-01T12:53:29;9.37;;;7.57;;
3297;SDS011;1661;53.572;10.174;2023-03-01T12:56:01;5.90;;;5.40;;
3297;SDS011;1661;53.572;10.174;2023-03-01T12:58:37;7.47;;;6.73;;
3297;SDS011;1661;53.572;10.174;2023-03-01T13:01:13;7.23;;;6.53;;
3297;SDS011;1661;53.572;10.174;2023-03-01T13:03:56;10.00;;;6.53;;
3297;SDS011;1661;53.572;10.174;2023-03-01T13:06:46;7.33;;;6.60;;
3297;SDS011;1661;53.572;10.174;2023-03-01T13:09:28;11.17;;;7.43;;
3297;SDS011;1661;53.572;10.174;2023-03-01T13:12:02;9.40;;;7.60;;
3297;SDS011;1661;53.572;10.174;2023-03-01T13:14:45;8.33;;;7.13;;
3297;SDS011;1661;53.572;10.174;2023-03-01T13:20:11;7.20;;;5.73;;
3297;SDS011;1661;53.572;10.174;2023-03-01T13:22:40;5.77;;;4.80;;
3297;SDS011;1661;53.572;10.174;2023-03-01T13:25:14;6.67;;;5.73;;
3297;SDS011;1661;53.572;10.174;2023-03-01T13:27:43;6.27;;;5.50;;
3297;SDS011;1661;53.572;10.174;2023-03-01T13:36:06;5.90;;;5.30;;
3297;SDS011;1661;53.572;10.174;2023-03-01T13:38:47;7.67;;;6.30;;
3297;SDS011;1661;53.572;10.174;2023-03-01T13:44:20;8.23;;;4.97;;
3297;SDS011;1661;53.572;10.174;2023-03-01T13:46:56;5.20;;;4.73;;
3297;SDS011;1661;53.572;10.174;2023-03-01T13:49:25;5.13;;;4.63;;
3297;SDS011;1661;53.572;10.174;2023-03-01T13:51:57;7.73;;;6.60;;
3297;SDS011;1661;53.572;10.174;2023-03-01T13:54:25;10.13;;;6.00;;
3297;SDS011;1661;53.572;10.174;2023-03-01T13:56:55;6.83;;;4.93;;
3297;SDS011;1661;53.572;10.174;2023-03-01T13:59:23;7.43;;;6.73;;
3297;SDS011;1661;53.572;10.174;2023-03-01T14:01:58;6.97;;;6.13;;
3297;SDS011;1661;53.572;10.174;2023-03-01T14:04:27;7.50;;;6.03;;
3297;SDS011;1661;53.572;10.174;2023-03-01T14:07:09;6.33;;;5.60;;
3297;SDS011;1661;53.572;10.174;2023-03-01T14:09:37;7.20;;;4.97;;
3297;SDS011;1661;53.572;10.174;2023-03-01T14:12:12;5.27;;;4.70;;
3297;SDS011;1661;53.572;10.174;2023-03-01T14:14:52;5.43;;;4.93;;
3297;SDS011;1661;53.572;10.174;2023-03-01T14:17:30;5.23;;;4.67;;
3297;SDS011;1661;53.572;10.174;2023-03-01T14:20:14;6.43;;;3.97;;
3297;SDS011;1661;53.572;10.174;2023-03-01T14:22:44;5.23;;;4.73;;
3297;SDS011;1661;53.572;10.174;2023-03-01T14:25:17;7.13;;;5.00;;
3297;SDS011;1661;53.572;10.174;2023-03-01T14:27:51;6.60;;;5.17;;
3297;SDS011;1661;53.572;10.174;2023-03-01T14:30:22;3.60;;;3.00;;
3297;SDS011;1661;53.572;10.174;2023-03-01T14:32:53;5.00;;;4.50;;
3297;SDS011;1661;53.572;10.174;2023-03-01T14:35:22;6.10;;;5.50;;
3297;SDS011;1661;53.572;10.174;2023-03-01T14:37:50;5.90;;;5.50;;
3297;SDS011;1661;53.572;10.174;2023-03-01T14:40:25;7.20;;;6.47;;
3297;SDS011;1661;53.572;10.174;2023-03-01T14:42:53;8.40;;;7.30;;
3297;SDS011;1661;53.572;10.174;2023-03-01T14:45:22;7.33;;;6.30;;
3297;SDS011;1661;53.572;10.174;2023-03-01T14:47:51;6.30;;;5.70;;
3297;SDS011;1661;53.572;10.174;2023-03-01T14:50:24;7.50;;;6.80;;
3297;SDS011;1661;53.572;10.174;2023-03-01T14:52:53;5.97;;;5.50;;
3297;SDS011;1661;53.572;10.174;2023-03-01T14:55:24;8.53;;;7.73;;
3297;SDS011;1661;53.572;10.174;2023-03-01T14:57:56;8.87;;;6.77;;
3297;SDS011;1661;53.572;10.174;2023-03-01T15:00:24;6.93;;;6.23;;
3297;SDS011;1661;53.572;10.174;2023-03-01T15:02:58;7.43;;;6.00;;
3297;SDS011;1661;53.572;10.174;2023-03-01T15:05:29;8.50;;;6.73;;
3297;SDS011;1661;53.572;10.174;2023-03-01T15:07:56;7.00;;;6.30;;
3297;SDS011;1661;53.572;10.174;2023-03-01T15:10:25;6.27;;;5.63;;
3297;SDS011;1661;53.572;10.174;2023-03-01T15:12:54;5.53;;;5.03;;
3297;SDS011;1661;53.572;10.174;2023-03-01T15:15:32;6.10;;;5.50;;
3297;SDS011;1661;53.572;10.174;2023-03-01T15:18:03;4.97;;;4.53;;
3297;SDS011;1661;53.572;10.174;2023-03-01T15:20:33;4.70;;;4.30;;
3297;SDS011;1661;53.572;10.174;2023-03-01T15:23:03;8.63;;;5.47;;
3297;SDS011;1661;53.572;10.174;2023-03-01T15:25:30;7.03;;;6.10;;
3297;SDS011;1661;53.572;10.174;2023-03-01T15:27:59;5.50;;;4.90;;
3297;SDS011;1661;53.572;10.174;2023-03-01T15:30:28;9.13;;;5.77;;
3297;SDS011;1661;53.572;10.174;2023-03-01T15:38:56;6.20;;;5.70;;
3297;SDS011;1661;53.572;10.174;2023-03-01T15:41:25;5.87;;;5.27;;
3297;SDS011;1661;53.572;10.174;2023-03-01T15:43:56;5.10;;;4.60;;